sensor_id;sensor_type;location;lat;lon;timestamp;pressure;altitude;pressure_sealevel;temperature;humidity
20860;BME280;10590;48.154;11.514;2022-12-19T00:02:11;96652.53;;;-5.91;100.00
20860;BME280;10590;48.154;11.514;2022-12-19T00:07:12;96636.44;;;-6.23;100.00
20860;BME280;10590;48.154;11.514;2022-12-19T00:12:14;96633.28;;;-6.11;100.00
20860;BME280;10590;48.154;11.514;2022-12-19T00:17:17;96612.88;;;-6.09;100.00
20860;BME280;10590;48.154;11.514;2022-12-19T00:22:19;96598.38;;;-6.05;100.00
20860;BME280;10590;48.154;11.514;2022-12-19T00:27:20;96572.22;;;-5.92;100.00
20860;BME280;10590;48.154;11.514;2022-12-19T00:32:23;96562.84;;;-6.08;100.00
20860;BME280;10590;48.154;11.514;2022-12-19T00:37:25;96585.97;;;-5.70;100.00
20860;BME280;10590;48.154;11.514;2022-12-19T00:42:27;96629.94;;;-5.31;100.00
20860;BME280;10590;48.154;11.514;2022-12-19T00:47:30;96635.88;;;-5.09;100.00
20860;BME280;10590;48.154;11.514;2022-12-19T00:52:32;96607.47;;;-5.47;100.00
20860;BME280;10590;48.154;11.514;2022-12-19T00:57:33;96595.00;;;-5.38;100.00
20860;BME280;10590;48.154;11.514;2022-12-19T01:02:48;96590.38;;;-5.23;100.00
20860;BME280;10590;48.154;11.514;2022-12-19T01:07:52;96591.78;;;-5.20;100.00
20860;BME280;10590;48.154;11.514;2022-12-19T01:12:54;96579.47;;;-5.87;100.00
20860;BME280;10590;48.154;11.514;2022-12-19T01:17:57;96576.19;;;-6.03;100.00
20860;BME280;10590;48.154;11.514;2022-12-19T01:22:59;96569.22;;;-5.76;100.00
20860;BME280;10590;48.154;11.514;2022-12-19T01:28:00;96577.78;;;-5.40;100.00
20860;BME280;10590;48.154;11.514;2022-12-19T01:33:03;96575.75;;;-5.38;100.00
20860;BME280;10590;48.154;11.514;2022-12-19T01:38:05;96597.06;;;-4.94;100.00
20860;BME280;10590;48.154;11.514;2022-12-19T01:43:11;96615.63;;;-5.15;100.00
20860;BME280;10590;48.154;11.514;2022-12-19T01:48:17;96616.84;;;-5.24;100.00
20860;BME280;10590;48.154;11.514;2022-12-19T01:53:23;96603.91;;;-5.26;100.00
20860;BME280;10590;48.154;11.514;2022-12-19T01:58:26;96612.09;;;-5.55;100.00
20860;BME280;10590;48.154;11.514;2022-12-19T02:03:31;96626.75;;;-5.20;100.00
20860;BME280;10590;48.154;11.514;2022-12-19T02:08:34;96626.09;;;-5.35;100.00
20860;BME280;10590;48.154;11.514;2022-12-19T02:13:36;96632.50;;;-5.57;100.00
20860;BME280;10590;48.154;11.514;2022-12-19T02:18:45;96626.22;;;-5.63;100.00
20860;BME280;10590;48.154;11.514;2022-12-19T02:29:38;96640.84;;;-5.82;100.00
20860;BME280;10590;48.154;11.514;2022-12-19T02:34:51;96658.06;;;-5.79;100.00
20860;BME280;10590;48.154;11.514;2022-12-19T02:40:01;96639.00;;;-6.29;100.00
20860;BME280;10590;48.154;11.514;2022-12-19T02:45:07;96648.59;;;-6.15;100.00
20860;BME280;10590;48.154;11.514;2022-12-19T02:50:11;96659.97;;;-6.01;100.00
20860;BME280;10590;48.154;11.514;2022-12-19T02:55:17;96650.66;;;-6.38;100.00
20860;BME280;10590;48.154;11.514;2022-12-19T03:00:22;96660.03;;;-5.88;100.00
20860;BME280;10590;48.154;11.514;2022-12-19T03:05:33;96661.25;;;-5.84;100.00
20860;BME280;10590;48.154;11.514;2022-12-19T03:10:43;96661.88;;;-6.23;100.00
20860;BME280;10590;48.154;11.514;2022-12-19T03:15:50;96673.53;;;-5.91;100.00
20860;BME280;10590;48.154;11.514;2022-12-19T03:21:02;96669.00;;;-6.10;100.00
20860;BME280;10590;48.154;11.514;2022-12-19T03:26:06;96674.16;;;-5.89;100.00
20860;BME280;10590;48.154;11.514;2022-12-19T03:31:11;96655.72;;;-6.02;100.00
20860;BME280;10590;48.154;11.514;2022-12-19T03:36:19;96664.25;;;-6.00;100.00
20860;BME280;10590;48.154;11.514;2022-12-19T03:41:23;96687.00;;;-5.66;100.00
20860;BME280;10590;48.154;11.514;2022-12-19T03:46:43;96689.91;;;-5.89;100.00
20860;BME280;10590;48.154;11.514;2022-12-19T03:51:52;96678.44;;;-5.81;100.00
20860;BME280;10590;48.154;11.514;2022-12-19T03:56:59;96683.16;;;-5.63;100.00
20860;BME280;10590;48.154;11.514;2022-12-19T04:02:05;96639.94;;;-5.68;100.00
20860;BME280;10590;48.154;11.514;2022-12-19T04:07:09;96640.91;;;-5.75;100.00
20860;BME280;10590;48.154;11.514;2022-12-19T04:12:16;96678.47;;;-5.33;100.00
20860;BME280;10590;48.154;11.514;2022-12-19T04:17:26;96683.94;;;-5.28;100.00
20860;BME280;10590;48.154;11.514;2022-12-19T04:22:35;96671.41;;;-5.26;100.00
20860;BME280;10590;48.154;11.514;2022-12-19T04:27:42;96712.63;;;-5.27;100.00
20860;BME280;10590;48.154;11.514;2022-12-19T04:32:46;96727.66;;;-5.07;100.00
20860;BME280;10590;48.154;11.514;2022-12-19T04:37:50;96678.47;;;-5.27;100.00
20860;BME280;10590;48.154;11.514;2022-12-19T04:42:51;96668.97;;;-5.28;100.00
20860;BME280;10590;48.154;11.514;2022-12-19T04:47:53;96658.56;;;-4.95;100.00
20860;BME280;10590;48.154;11.514;2022-12-19T04:52:59;96655.84;;;-5.21;100.00
20860;BME280;10590;48.154;11.514;2022-12-19T04:58:05;96653.69;;;-4.84;100.00
20860;BME280;10590;48.154;11.514;2022-12-19T05:03:07;96656.53;;;-4.86;100.00
20860;BME280;10590;48.154;11.514;2022-12-19T05:08:09;96649.88;;;-4.69;100.00
20860;BME280;10590;48.154;11.514;2022-12-19T05:13:11;96654.72;;;-4.52;100.00
20860;BME280;10590;48.154;11.514;2022-12-19T05:18:13;96651.28;;;-4.20;100.00
20860;BME280;10590;48.154;11.514;2022-12-19T05:23:15;96638.97;;;-4.59;100.00
20860;BME280;10590;48.154;11.514;2022-12-19T05:28:18;96673.16;;;-4.19;100.00
20860;BME280;10590;48.154;11.514;2022-12-19T05:33:20;96691.16;;;-4.09;100.00
20860;BME280;10590;48.154;11.514;2022-12-19T05:38:23;96689.75;;;-4.45;100.00
20860;BME280;10590;48.154;11.514;2022-12-19T05:43:24;96679.44;;;-4.40;100.00
20860;BME280;10590;48.154;11.514;2022-12-19T05:48:26;96673.16;;;-4.12;100.00
20860;BME280;10590;48.154;11.514;2022-12-19T05:53:29;96664.22;;;-4.25;100.00
20860;BME280;10590;48.154;11.514;2022-12-19T05:58:31;96662.59;;;-4.06;100.00
20860;BME280;10590;48.154;11.514;2022-12-19T06:03:33;96663.44;;;-4.25;100.00
20860;BME280;10590;48.154;11.514;2022-12-19T06:08:36;96656.75;;;-4.14;100.00
20860;BME280;10590;48.154;11.514;2022-12-19T06:13:39;96655.28;;;-3.97;100.00
20860;BME280;10590;48.154;11.514;2022-12-19T06:18:51;96657.09;;;-3.84;100.00
20860;BME280;10590;48.154;11.514;2022-12-19T06:23:54;96661.28;;;-3.63;100.00
20860;BME280;10590;48.154;11.514;2022-12-19T06:28:56;96656.72;;;-3.30;100.00
20860;BME280;10590;48.154;11.514;2022-12-19T06:33:57;96673.66;;;-3.12;100.00
20860;BME280;10590;48.154;11.514;2022-12-19T06:39:00;96673.19;;;-3.54;100.00
20860;BME280;10590;48.154;11.514;2022-12-19T06:44:04;96671.88;;;-3.77;100.00
20860;BME280;10590;48.154;11.514;2022-12-19T06:49:06;96667.09;;;-3.41;100.00
20860;BME280;10590;48.154;11.514;2022-12-19T06:54:10;96661.44;;;-3.45;100.00
20860;BME280;10590;48.154;11.514;2022-12-19T06:59:13;96654.81;;;-3.61;100.00
20860;BME280;10590;48.154;11.514;2022-12-19T07:04:20;96653.38;;;-3.12;100.00
20860;BME280;10590;48.154;11.514;2022-12-19T07:09:38;96668.59;;;-3.14;100.00
20860;BME280;10590;48.154;11.514;2022-12-19T07:14:56;96669.94;;;-2.98;100.00
20860;BME280;10590;48.154;11.514;2022-12-19T07:19:57;96666.69;;;-2.68;100.00
20860;BME280;10590;48.154;11.514;2022-12-19T07:25:03;96667.53;;;-2.43;100.00
20860;BME280;10590;48.154;11.514;2022-12-19T07:30:06;96681.84;;;-2.57;100.00
20860;BME280;10590;48.154;11.514;2022-12-19T07:35:08;96678.94;;;-1.99;100.00
20860;BME280;10590;48.154;11.514;2022-12-19T07:40:14;96680.50;;;-2.16;100.00
20860;BME280;10590;48.154;11.514;2022-12-19T07:45:16;96675.31;;;-1.80;100.00
20860;BME280;10590;48.154;11.514;2022-12-19T07:50:18;96691.63;;;-1.64;100.00
20860;BME280;10590;48.154;11.514;2022-12-19T07:55:21;96679.97;;;-2.00;100.00
20860;BME280;10590;48.154;11.514;2022-12-19T08:00:23;96683.72;;;-2.08;100.00
20860;BME280;10590;48.154;11.514;2022-12-19T08:05:25;96681.69;;;-2.12;100.00
20860;BME280;10590;48.154;11.514;2022-12-19T08:10:27;96679.09;;;-1.94;100.00
20860;BME280;10590;48.154;11.514;2022-12-19T08:15:30;96667.75;;;-1.76;100.00
20860;BME280;10590;48.154;11.514;2022-12-19T08:20:31;96668.69;;;-1.70;100.00
20860;BME280;10590;48.154;11.514;2022-12-19T08:25:38;96651.81;;;-1.51;100.00
20860;BME280;10590;48.154;11.514;2022-12-19T08:30:40;96648.88;;;-1.43;100.00
20860;BME280;10590;48.154;11.514;2022-12-19T08:35:42;96646.59;;;-1.21;100.00
20860;BME280;10590;48.154;11.514;2022-12-19T08:40:50;96632.97;;;-0.64;100.00
20860;BME280;10590;48.154;11.514;2022-12-19T08:45:52;96637.84;;;-0.38;100.00
20860;BME280;10590;48.154;11.514;2022-12-19T08:50:56;96640.84;;;0.36;100.00
20860;BME280;10590;48.154;11.514;2022-12-19T08:56:02;96632.34;;;-0.25;100.00
20860;BME280;10590;48.154;11.514;2022-12-19T09:01:06;96621.38;;;-0.05;100.00
20860;BME280;10590;48.154;11.514;2022-12-19T09:06:10;96612.28;;;-0.32;100.00
20860;BME280;10590;48.154;11.514;2022-12-19T09:11:15;96590.69;;;0.35;100.00
20860;BME280;10590;48.154;11.514;2022-12-19T09:16:19;96598.63;;;0.87;100.00
20860;BME280;10590;48.154;11.514;2022-12-19T09:21:22;96598.78;;;1.42;100.00
20860;BME280;10590;48.154;11.514;2022-12-19T09:26:26;96625.34;;;0.97;100.00
20860;BME280;10590;48.154;11.514;2022-12-19T09:31:27;96617.13;;;1.27;100.00
20860;BME280;10590;48.154;11.514;2022-12-19T09:36:29;96614.56;;;1.49;100.00
20860;BME280;10590;48.154;11.514;2022-12-19T09:41:53;96604.91;;;1.26;100.00
20860;BME280;10590;48.154;11.514;2022-12-19T09:47:02;96607.16;;;0.48;100.00
20860;BME280;10590;48.154;11.514;2022-12-19T09:52:10;96622.50;;;0.87;100.00
20860;BME280;10590;48.154;11.514;2022-12-19T09:57:17;96616.81;;;1.91;100.00
20860;BME280;10590;48.154;11.514;2022-12-19T10:02:31;96617.91;;;2.12;100.00
20860;BME280;10590;48.154;11.514;2022-12-19T10:07:37;96608.59;;;2.09;100.00
20860;BME280;10590;48.154;11.514;2022-12-19T10:12:53;96605.63;;;2.28;100.00
20860;BME280;10590;48.154;11.514;2022-12-19T10:18:11;96611.28;;;2.53;100.00
20860;BME280;10590;48.154;11.514;2022-12-19T10:23:39;96623.59;;;3.03;99.68
20860;BME280;10590;48.154;11.514;2022-12-19T10:28:56;96602.44;;;3.18;95.97
20860;BME280;10590;48.154;11.514;2022-12-19T10:34:06;96601.56;;;2.86;99.07
20860;BME280;10590;48.154;11.514;2022-12-19T10:39:22;96595.94;;;2.00;100.00
20860;BME280;10590;48.154;11.514;2022-12-19T10:44:30;96572.94;;;1.21;100.00
20860;BME280;10590;48.154;11.514;2022-12-19T10:49:33;96558.19;;;0.96;100.00
20860;BME280;10590;48.154;11.514;2022-12-19T10:54:41;96543.91;;;1.31;100.00
20860;BME280;10590;48.154;11.514;2022-12-19T10:59:53;96529.72;;;1.26;100.00
20860;BME280;10590;48.154;11.514;2022-12-19T11:04:55;96505.56;;;2.21;100.00
20860;BME280;10590;48.154;11.514;2022-12-19T11:09:58;96507.53;;;3.07;100.00
20860;BME280;10590;48.154;11.514;2022-12-19T11:15:12;96521.31;;;2.99;100.00
20860;BME280;10590;48.154;11.514;2022-12-19T11:20:18;96533.63;;;3.10;100.00
20860;BME280;10590;48.154;11.514;2022-12-19T11:25:23;96517.81;;;2.99;100.00
20860;BME280;10590;48.154;11.514;2022-12-19T11:30:33;96504.22;;;3.64;100.00
20860;BME280;10590;48.154;11.514;2022-12-19T11:35:45;96489.56;;;3.62;100.00
20860;BME280;10590;48.154;11.514;2022-12-19T11:40:51;96483.22;;;4.36;97.58
20860;BME280;10590;48.154;11.514;2022-12-19T11:46:00;96487.06;;;4.60;95.22
20860;BME280;10590;48.154;11.514;2022-12-19T11:51:08;96498.28;;;3.94;100.00
20860;BME280;10590;48.154;11.514;2022-12-19T11:56:15;96489.56;;;4.19;100.00
20860;BME280;10590;48.154;11.514;2022-12-19T12:01:35;96501.66;;;3.80;100.00
20860;BME280;10590;48.154;11.514;2022-12-19T12:06:44;96501.19;;;3.93;100.00
20860;BME280;10590;48.154;11.514;2022-12-19T12:11:52;96495.41;;;4.11;99.93
20860;BME280;10590;48.154;11.514;2022-12-19T12:17:14;96489.03;;;4.17;100.00
20860;BME280;10590;48.154;11.514;2022-12-19T12:22:36;96474.63;;;4.18;99.19
20860;BME280;10590;48.154;11.514;2022-12-19T12:27:48;96479.22;;;3.33;100.00
20860;BME280;10590;48.154;11.514;2022-12-19T12:33:05;96479.53;;;3.79;100.00
20860;BME280;10590;48.154;11.514;2022-12-19T12:38:37;96480.53;;;4.26;100.00
20860;BME280;10590;48.154;11.514;2022-12-19T12:44:00;96497.50;;;4.04;100.00
20860;BME280;10590;48.154;11.514;2022-12-19T12:49:23;96475.44;;;4.19;100.00
20860;BME280;10590;48.154;11.514;2022-12-19T12:54:32;96460.84;;;4.47;100.00
20860;BME280;10590;48.154;11.514;2022-12-19T12:59:35;96466.91;;;3.64;100.00
20860;BME280;10590;48.154;11.514;2022-12-19T13:04:42;96461.22;;;3.93;100.00
20860;BME280;10590;48.154;11.514;2022-12-19T13:10:06;96460.56;;;4.33;100.00
20860;BME280;10590;48.154;11.514;2022-12-19T13:15:26;96464.03;;;4.39;100.00
20860;BME280;10590;48.154;11.514;2022-12-19T13:20:46;96453.72;;;4.93;99.81
20860;BME280;10590;48.154;11.514;2022-12-19T13:25:50;96462.94;;;4.25;100.00
20860;BME280;10590;48.154;11.514;2022-12-19T13:31:12;96459.00;;;4.53;100.00
20860;BME280;10590;48.154;11.514;2022-12-19T13:36:50;96424.44;;;3.10;100.00
20860;BME280;10590;48.154;11.514;2022-12-19T13:42:00;96426.69;;;2.05;100.00
20860;BME280;10590;48.154;11.514;2022-12-19T13:47:21;96419.84;;;2.63;100.00
20860;BME280;10590;48.154;11.514;2022-12-19T13:52:25;96418.28;;;3.05;100.00
20860;BME280;10590;48.154;11.514;2022-12-19T13:57:28;96431.41;;;3.11;100.00
20860;BME280;10590;48.154;11.514;2022-12-19T14:02:32;96440.78;;;2.87;100.00
20860;BME280;10590;48.154;11.514;2022-12-19T14:07:37;96442.22;;;3.00;100.00
20860;BME280;10590;48.154;11.514;2022-12-19T14:12:41;96453.09;;;2.66;100.00
20860;BME280;10590;48.154;11.514;2022-12-19T14:18:06;96453.81;;;2.83;100.00
20860;BME280;10590;48.154;11.514;2022-12-19T14:23:11;96463.59;;;2.78;100.00
20860;BME280;10590;48.154;11.514;2022-12-19T14:28:16;96474.88;;;2.63;100.00
20860;BME280;10590;48.154;11.514;2022-12-19T14:33:22;96482.19;;;2.24;100.00
20860;BME280;10590;48.154;11.514;2022-12-19T14:38:31;96479.34;;;2.08;100.00
20860;BME280;10590;48.154;11.514;2022-12-19T14:43:33;96474.94;;;1.75;100.00
20860;BME280;10590;48.154;11.514;2022-12-19T14:48:49;96473.34;;;1.35;100.00
20860;BME280;10590;48.154;11.514;2022-12-19T14:54:17;96459.81;;;1.20;100.00
20860;BME280;10590;48.154;11.514;2022-12-19T14:59:28;96463.75;;;1.17;100.00
20860;BME280;10590;48.154;11.514;2022-12-19T15:04:32;96452.75;;;0.92;100.00
20860;BME280;10590;48.154;11.514;2022-12-19T15:09:41;96438.34;;;0.26;100.00
20860;BME280;10590;48.154;11.514;2022-12-19T15:14:48;96432.94;;;0.66;100.00
20860;BME280;10590;48.154;11.514;2022-12-19T15:19:50;96443.56;;;0.66;100.00
20860;BME280;10590;48.154;11.514;2022-12-19T15:24:53;96447.75;;;0.62;100.00
20860;BME280;10590;48.154;11.514;2022-12-19T15:29:54;96456.88;;;0.54;100.00
20860;BME280;10590;48.154;11.514;2022-12-19T15:34:57;96454.53;;;0.41;100.00
20860;BME280;10590;48.154;11.514;2022-12-19T15:40:00;96442.50;;;-0.07;100.00
20860;BME280;10590;48.154;11.514;2022-12-19T15:45:03;96431.06;;;0.04;100.00
20860;BME280;10590;48.154;11.514;2022-12-19T15:50:15;96434.78;;;-0.09;100.00
20860;BME280;10590;48.154;11.514;2022-12-19T15:55:19;96421.88;;;-0.57;100.00
20860;BME280;10590;48.154;11.514;2022-12-19T16:00:24;96408.50;;;0.02;100.00
20860;BME280;10590;48.154;11.514;2022-12-19T16:05:27;96437.69;;;0.18;100.00
20860;BME280;10590;48.154;11.514;2022-12-19T16:10:30;96451.09;;;0.40;100.00
20860;BME280;10590;48.154;11.514;2022-12-19T16:15:33;96434.31;;;-0.46;100.00
20860;BME280;10590;48.154;11.514;2022-12-19T16:20:34;96433.91;;;0.14;100.00
20860;BME280;10590;48.154;11.514;2022-12-19T16:25:40;96461.84;;;0.34;100.00
20860;BME280;10590;48.154;11.514;2022-12-19T16:30:42;96464.16;;;0.30;100.00
20860;BME280;10590;48.154;11.514;2022-12-19T16:35:44;96471.97;;;0.37;100.00
20860;BME280;10590;48.154;11.514;2022-12-19T16:40:48;96467.13;;;0.34;100.00
20860;BME280;10590;48.154;11.514;2022-12-19T16:45:50;96457.81;;;-0.61;100.00
20860;BME280;10590;48.154;11.514;2022-12-19T16:50:52;96470.78;;;0.16;100.00
20860;BME280;10590;48.154;11.514;2022-12-19T16:55:56;96468.19;;;0.04;100.00
20860;BME280;10590;48.154;11.514;2022-12-19T17:00:59;96438.47;;;-0.85;100.00
20860;BME280;10590;48.154;11.514;2022-12-19T17:06:01;96421.56;;;-0.84;100.00
20860;BME280;10590;48.154;11.514;2022-12-19T17:11:04;96418.44;;;-0.58;100.00
20860;BME280;10590;48.154;11.514;2022-12-19T17:16:07;96426.56;;;-0.47;100.00
20860;BME280;10590;48.154;11.514;2022-12-19T17:21:13;96457.28;;;-0.23;100.00
20860;BME280;10590;48.154;11.514;2022-12-19T17:26:17;96456.22;;;-0.10;100.00
20860;BME280;10590;48.154;11.514;2022-12-19T17:31:21;96451.72;;;-0.62;100.00
20860;BME280;10590;48.154;11.514;2022-12-19T17:36:25;96454.09;;;-0.37;100.00
20860;BME280;10590;48.154;11.514;2022-12-19T17:41:28;96448.09;;;-0.44;100.00
20860;BME280;10590;48.154;11.514;2022-12-19T17:46:36;96426.75;;;-0.78;100.00
20860;BME280;10590;48.154;11.514;2022-12-19T17:51:37;96420.78;;;-0.21;100.00
20860;BME280;10590;48.154;11.514;2022-12-19T17:56:40;96442.97;;;-0.10;100.00
20860;BME280;10590;48.154;11.514;2022-12-19T18:01:42;96432.03;;;-0.14;100.00
20860;BME280;10590;48.154;11.514;2022-12-19T18:06:46;96432.22;;;0.08;100.00
20860;BME280;10590;48.154;11.514;2022-12-19T18:11:50;96421.78;;;-0.10;100.00
20860;BME280;10590;48.154;11.514;2022-12-19T18:16:52;96408.16;;;-0.02;100.00
20860;BME280;10590;48.154;11.514;2022-12-19T18:21:54;96424.91;;;0.15;100.00
20860;BME280;10590;48.154;11.514;2022-12-19T18:27:03;96418.50;;;-0.01;100.00
20860;BME280;10590;48.154;11.514;2022-12-19T18:32:04;96432.19;;;0.37;100.00
20860;BME280;10590;48.154;11.514;2022-12-19T18:37:11;96408.50;;;0.02;100.00
20860;BME280;10590;48.154;11.514;2022-12-19T18:42:19;96395.81;;;0.32;100.00
20860;BME280;10590;48.154;11.514;2022-12-19T18:47:22;96387.28;;;0.02;100.00
20860;BME280;10590;48.154;11.514;2022-12-19T18:52:24;96384.00;;;0.11;100.00
20860;BME280;10590;48.154;11.514;2022-12-19T18:57:27;96395.72;;;0.44;100.00
20860;BME280;10590;48.154;11.514;2022-12-19T19:02:29;96405.75;;;0.25;100.00
20860;BME280;10590;48.154;11.514;2022-12-19T19:07:30;96372.56;;;-0.06;100.00
20860;BME280;10590;48.154;11.514;2022-12-19T19:12:33;96377.91;;;0.39;100.00
20860;BME280;10590;48.154;11.514;2022-12-19T19:17:35;96387.69;;;0.39;100.00
20860;BME280;10590;48.154;11.514;2022-12-19T19:22:37;96393.22;;;0.37;100.00
20860;BME280;10590;48.154;11.514;2022-12-19T19:27:40;96394.16;;;0.14;100.00
20860;BME280;10590;48.154;11.514;2022-12-19T19:33:02;96390.91;;;0.41;100.00
20860;BME280;10590;48.154;11.514;2022-12-19T19:38:08;96398.06;;;0.12;100.00
20860;BME280;10590;48.154;11.514;2022-12-19T19:43:13;96388.00;;;0.26;100.00
20860;BME280;10590;48.154;11.514;2022-12-19T19:48:15;96382.19;;;-0.69;100.00
20860;BME280;10590;48.154;11.514;2022-12-19T19:53:16;96329.56;;;-0.54;100.00
20860;BME280;10590;48.154;11.514;2022-12-19T19:58:20;96326.91;;;-0.54;100.00
20860;BME280;10590;48.154;11.514;2022-12-19T20:03:22;96355.22;;;-0.42;100.00
20860;BME280;10590;48.154;11.514;2022-12-19T20:08:24;96366.19;;;-0.62;100.00
20860;BME280;10590;48.154;11.514;2022-12-19T20:13:29;96353.22;;;-0.99;100.00
20860;BME280;10590;48.154;11.514;2022-12-19T20:18:31;96345.28;;;-0.99;100.00
20860;BME280;10590;48.154;11.514;2022-12-19T20:23:33;96363.19;;;-0.54;100.00
20860;BME280;10590;48.154;11.514;2022-12-19T20:28:36;96370.81;;;-0.29;100.00
20860;BME280;10590;48.154;11.514;2022-12-19T20:33:37;96372.00;;;-0.37;100.00
20860;BME280;10590;48.154;11.514;2022-12-19T20:38:39;96362.75;;;-0.63;100.00
20860;BME280;10590;48.154;11.514;2022-12-19T20:43:42;96366.53;;;-0.59;100.00
20860;BME280;10590;48.154;11.514;2022-12-19T20:48:44;96352.22;;;-0.98;100.00
20860;BME280;10590;48.154;11.514;2022-12-19T20:53:46;96333.78;;;-0.93;100.00
20860;BME280;10590;48.154;11.514;2022-12-19T20:58:49;96326.91;;;-1.06;100.00
20860;BME280;10590;48.154;11.514;2022-12-19T21:03:51;96331.41;;;-0.54;100.00
20860;BME280;10590;48.154;11.514;2022-12-19T21:08:53;96361.19;;;-0.35;100.00
20860;BME280;10590;48.154;11.514;2022-12-19T21:13:56;96358.75;;;-0.37;100.00
20860;BME280;10590;48.154;11.514;2022-12-19T21:18:58;96361.66;;;-0.10;100.00
20860;BME280;10590;48.154;11.514;2022-12-19T21:24:00;96365.59;;;-0.24;100.00
20860;BME280;10590;48.154;11.514;2022-12-19T21:29:04;96361.72;;;-0.73;100.00
20860;BME280;10590;48.154;11.514;2022-12-19T21:34:05;96347.31;;;-0.54;100.00
20860;BME280;10590;48.154;11.514;2022-12-19T21:39:07;96353.91;;;-0.40;100.00
20860;BME280;10590;48.154;11.514;2022-12-19T21:44:10;96361.88;;;-0.40;100.00
20860;BME280;10590;48.154;11.514;2022-12-19T21:49:11;96369.63;;;-0.21;100.00
20860;BME280;10590;48.154;11.514;2022-12-19T21:54:13;96382.53;;;-0.25;100.00
20860;BME280;10590;48.154;11.514;2022-12-19T21:59:16;96381.75;;;-0.26;100.00
20860;BME280;10590;48.154;11.514;2022-12-19T22:04:20;96376.19;;;-0.24;100.00
20860;BME280;10590;48.154;11.514;2022-12-19T22:09:22;96365.06;;;-0.26;100.00
20860;BME280;10590;48.154;11.514;2022-12-19T22:14:25;96366.47;;;-0.35;100.00
20860;BME280;10590;48.154;11.514;2022-12-19T22:19:26;96347.75;;;-0.57;100.00
20860;BME280;10590;48.154;11.514;2022-12-19T22:24:28;96344.13;;;-0.39;100.00
20860;BME280;10590;48.154;11.514;2022-12-19T22:29:31;96333.44;;;-0.44;100.00
20860;BME280;10590;48.154;11.514;2022-12-19T22:34:36;96316.16;;;-0.35;100.00
20860;BME280;10590;48.154;11.514;2022-12-19T22:39:37;96333.69;;;-0.17;100.00
20860;BME280;10590;48.154;11.514;2022-12-19T22:44:41;96326.53;;;-0.74;100.00
20860;BME280;10590;48.154;11.514;2022-12-19T22:49:42;96321.44;;;-0.76;100.00
20860;BME280;10590;48.154;11.514;2022-12-19T22:54:44;96321.72;;;-0.48;100.00
20860;BME280;10590;48.154;11.514;2022-12-19T22:59:47;96331.66;;;0.02;100.00
20860;BME280;10590;48.154;11.514;2022-12-19T23:04:48;96353.91;;;0.17;100.00
20860;BME280;10590;48.154;11.514;2022-12-19T23:09:50;96350.59;;;0.10;100.00
20860;BME280;10590;48.154;11.514;2022-12-19T23:14:53;96339.06;;;-0.12;100.00
20860;BME280;10590;48.154;11.514;2022-12-19T23:19:55;96330.84;;;0.01;100.00
20860;BME280;10590;48.154;11.514;2022-12-19T23:24:59;96334.81;;;-0.13;100.00
20860;BME280;10590;48.154;11.514;2022-12-19T23:30:02;96340.31;;;-0.03;100.00
20860;BME280;10590;48.154;11.514;2022-12-19T23:35:05;96332.94;;;-0.30;100.00
20860;BME280;10590;48.154;11.514;2022-12-19T23:40:08;96333.91;;;0.10;100.00
20860;BME280;10590;48.154;11.514;2022-12-19T23:45:11;96329.25;;;0.00;100.00
20860;BME280;10590;48.154;11.514;2022-12-19T23:50:13;96322.31;;;-0.01;100.00
20860;BME280;10590;48.154;11.514;2022-12-19T23:55:15;96312.53;;;-0.01;100.00
